sensor_id;sensor_type;location;lat;lon;timestamp;temperature;humidity
42147;DHT22;27815;43.410;11.852;2023-09-07T00:00:30;23.10;48.30
42147;DHT22;27815;43.410;11.852;2023-09-07T00:05:09;23.10;48.30
42147;DHT22;27815;43.410;11.852;2023-09-07T00:09:26;23.10;48.20
42147;DHT22;27815;43.410;11.852;2023-09-07T00:13:49;23.20;48.10
42147;DHT22;27815;43.410;11.852;2023-09-07T00:18:01;23.10;48.10
42147;DHT22;27815;43.410;11.852;2023-09-07T00:22:16;23.20;48.00
42147;DHT22;27815;43.410;11.852;2023-09-07T00:26:20;23.10;48.00
42147;DHT22;27815;43.410;11.852;2023-09-07T00:30:28;23.20;47.90
42147;DHT22;27815;43.410;11.852;2023-09-07T00:35:17;23.10;47.80
42147;DHT22;27815;43.410;11.852;2023-09-07T00:39:25;23.10;47.80
42147;DHT22;27815;43.410;11.852;2023-09-07T00:48:31;23.10;47.60
42147;DHT22;27815;43.410;11.852;2023-09-07T00:52:47;23.10;47.50
42147;DHT22;27815;43.410;11.852;2023-09-07T00:57:01;23.10;47.50
42147;DHT22;27815;43.410;11.852;2023-09-07T01:01:15;23.10;47.50
42147;DHT22;27815;43.410;11.852;2023-09-07T01:05:38;23.10;47.50
42147;DHT22;27815;43.410;11.852;2023-09-07T01:09:56;23.10;47.50
42147;DHT22;27815;43.410;11.852;2023-09-07T01:14:06;23.00;47.60
42147;DHT22;27815;43.410;11.852;2023-09-07T01:18:15;23.00;47.60
42147;DHT22;27815;43.410;11.852;2023-09-07T01:23:07;23.00;47.60
42147;DHT22;27815;43.410;11.852;2023-09-07T01:27:20;23.00;47.60
42147;DHT22;27815;43.410;11.852;2023-09-07T01:31:37;23.00;47.60
42147;DHT22;27815;43.410;11.852;2023-09-07T01:35:46;23.00;47.50
42147;DHT22;27815;43.410;11.852;2023-09-07T01:40:02;23.00;47.50
42147;DHT22;27815;43.410;11.852;2023-09-07T01:44:34;23.10;47.40
42147;DHT22;27815;43.410;11.852;2023-09-07T01:48:52;23.10;47.50
42147;DHT22;27815;43.410;11.852;2023-09-07T01:52:58;23.10;47.50
42147;DHT22;27815;43.410;11.852;2023-09-07T01:57:08;23.10;47.50
42147;DHT22;27815;43.410;11.852;2023-09-07T02:01:26;23.00;47.60
42147;DHT22;27815;43.410;11.852;2023-09-07T02:05:35;22.80;47.70
42147;DHT22;27815;43.410;11.852;2023-09-07T02:09:40;22.60;48.10
42147;DHT22;27815;43.410;11.852;2023-09-07T02:13:45;22.60;48.30
42147;DHT22;27815;43.410;11.852;2023-09-07T02:18:00;22.50;48.50
42147;DHT22;27815;43.410;11.852;2023-09-07T02:22:05;22.40;48.30
42147;DHT22;27815;43.410;11.852;2023-09-07T02:26:09;22.20;48.90
42147;DHT22;27815;43.410;11.852;2023-09-07T02:30:15;22.10;49.00
42147;DHT22;27815;43.410;11.852;2023-09-07T02:34:21;22.00;48.70
42147;DHT22;27815;43.410;11.852;2023-09-07T02:38:28;21.80;49.30
42147;DHT22;27815;43.410;11.852;2023-09-07T02:42:40;21.70;49.10
42147;DHT22;27815;43.410;11.852;2023-09-07T02:46:46;21.50;49.70
42147;DHT22;27815;43.410;11.852;2023-09-07T02:50:51;21.50;50.00
42147;DHT22;27815;43.410;11.852;2023-09-07T02:54:58;21.40;50.10
42147;DHT22;27815;43.410;11.852;2023-09-07T02:59:04;21.30;50.30
42147;DHT22;27815;43.410;11.852;2023-09-07T03:03:09;21.30;50.70
42147;DHT22;27815;43.410;11.852;2023-09-07T03:07:37;21.50;50.70
42147;DHT22;27815;43.410;11.852;2023-09-07T03:11:54;21.70;50.70
42147;DHT22;27815;43.410;11.852;2023-09-07T03:16:00;22.00;50.70
42147;DHT22;27815;43.410;11.852;2023-09-07T03:20:09;22.00;50.70
42147;DHT22;27815;43.410;11.852;2023-09-07T03:24:29;22.10;50.80
42147;DHT22;27815;43.410;11.852;2023-09-07T03:28:38;22.20;50.80
42147;DHT22;27815;43.410;11.852;2023-09-07T03:32:49;22.30;50.80
42147;DHT22;27815;43.410;11.852;2023-09-07T03:37:03;22.50;50.80
42147;DHT22;27815;43.410;11.852;2023-09-07T03:41:20;22.50;50.80
42147;DHT22;27815;43.410;11.852;2023-09-07T03:45:26;22.50;50.80
42147;DHT22;27815;43.410;11.852;2023-09-07T03:49:31;22.60;50.80
42147;DHT22;27815;43.410;11.852;2023-09-07T03:53:36;22.70;50.80
42147;DHT22;27815;43.410;11.852;2023-09-07T03:57:39;22.80;50.90
42147;DHT22;27815;43.410;11.852;2023-09-07T04:01:49;22.80;51.00
42147;DHT22;27815;43.410;11.852;2023-09-07T04:05:52;22.90;51.10
42147;DHT22;27815;43.410;11.852;2023-09-07T04:09:55;22.90;51.20
42147;DHT22;27815;43.410;11.852;2023-09-07T04:14:00;22.90;51.40
42147;DHT22;27815;43.410;11.852;2023-09-07T04:18:03;22.90;51.70
42147;DHT22;27815;43.410;11.852;2023-09-07T04:22:06;22.90;51.80
42147;DHT22;27815;43.410;11.852;2023-09-07T04:26:11;22.90;52.20
42147;DHT22;27815;43.410;11.852;2023-09-07T04:35:09;22.80;52.60
42147;DHT22;27815;43.410;11.852;2023-09-07T04:39:32;22.90;52.90
42147;DHT22;27815;43.410;11.852;2023-09-07T04:44:11;22.80;53.10
42147;DHT22;27815;43.410;11.852;2023-09-07T04:48:24;22.80;53.40
42147;DHT22;27815;43.410;11.852;2023-09-07T04:52:46;22.80;53.70
42147;DHT22;27815;43.410;11.852;2023-09-07T04:56:57;22.90;54.00
42147;DHT22;27815;43.410;11.852;2023-09-07T05:01:09;22.90;53.90
42147;DHT22;27815;43.410;11.852;2023-09-07T05:05:14;22.90;53.90
42147;DHT22;27815;43.410;11.852;2023-09-07T05:09:18;22.90;53.90
42147;DHT22;27815;43.410;11.852;2023-09-07T05:18:59;22.90;54.00
42147;DHT22;27815;43.410;11.852;2023-09-07T05:24:25;22.90;54.40
42147;DHT22;27815;43.410;11.852;2023-09-07T05:28:29;22.80;54.40
42147;DHT22;27815;43.410;11.852;2023-09-07T05:32:36;22.80;54.40
42147;DHT22;27815;43.410;11.852;2023-09-07T05:37:03;22.80;54.60
42147;DHT22;27815;43.410;11.852;2023-09-07T05:41:31;22.90;54.60
42147;DHT22;27815;43.410;11.852;2023-09-07T05:45:42;22.90;54.50
42147;DHT22;27815;43.410;11.852;2023-09-07T05:49:47;22.90;54.60
42147;DHT22;27815;43.410;11.852;2023-09-07T05:53:50;22.90;54.50
42147;DHT22;27815;43.410;11.852;2023-09-07T05:57:55;22.90;54.50
42147;DHT22;27815;43.410;11.852;2023-09-07T06:01:59;22.90;54.50
42147;DHT22;27815;43.410;11.852;2023-09-07T06:06:42;23.00;54.50
42147;DHT22;27815;43.410;11.852;2023-09-07T06:10:46;23.00;54.30
42147;DHT22;27815;43.410;11.852;2023-09-07T06:14:49;23.00;54.50
42147;DHT22;27815;43.410;11.852;2023-09-07T06:18:56;23.30;54.20
42147;DHT22;27815;43.410;11.852;2023-09-07T06:22:59;23.50;53.60
42147;DHT22;27815;43.410;11.852;2023-09-07T06:27:04;23.60;53.60
42147;DHT22;27815;43.410;11.852;2023-09-07T06:31:10;23.90;53.40
42147;DHT22;27815;43.410;11.852;2023-09-07T06:35:14;24.00;53.10
42147;DHT22;27815;43.410;11.852;2023-09-07T06:39:17;24.20;52.90
42147;DHT22;27815;43.410;11.852;2023-09-07T06:43:22;24.50;52.60
42147;DHT22;27815;43.410;11.852;2023-09-07T06:47:28;24.60;52.20
42147;DHT22;27815;43.410;11.852;2023-09-07T06:51:43;24.70;52.00
42147;DHT22;27815;43.410;11.852;2023-09-07T06:56:41;24.80;51.80
42147;DHT22;27815;43.410;11.852;2023-09-07T07:07:03;25.20;51.20
42147;DHT22;27815;43.410;11.852;2023-09-07T07:17:12;25.50;50.10
42147;DHT22;27815;43.410;11.852;2023-09-07T07:34:48;25.90;48.70
42147;DHT22;27815;43.410;11.852;2023-09-07T07:41:26;26.10;48.40
42147;DHT22;27815;43.410;11.852;2023-09-07T08:05:25;26.90;45.70
42147;DHT22;27815;43.410;11.852;2023-09-07T08:11:14;27.00;45.10
42147;DHT22;27815;43.410;11.852;2023-09-07T08:17:14;27.20;44.90
42147;DHT22;27815;43.410;11.852;2023-09-07T08:23:01;27.30;44.20
42147;DHT22;27815;43.410;11.852;2023-09-07T08:27:39;27.30;44.30
42147;DHT22;27815;43.410;11.852;2023-09-07T08:33:28;27.50;44.00
42147;DHT22;27815;43.410;11.852;2023-09-07T08:38:34;27.80;43.70
42147;DHT22;27815;43.410;11.852;2023-09-07T08:43:51;28.00;43.20
42147;DHT22;27815;43.410;11.852;2023-09-07T08:49:27;28.30;42.60
42147;DHT22;27815;43.410;11.852;2023-09-07T08:55:24;28.50;41.90
42147;DHT22;27815;43.410;11.852;2023-09-07T08:59:50;28.50;41.70
42147;DHT22;27815;43.410;11.852;2023-09-07T09:04:00;28.70;41.20
42147;DHT22;27815;43.410;11.852;2023-09-07T09:08:11;28.60;41.00
42147;DHT22;27815;43.410;11.852;2023-09-07T09:12:19;28.50;40.60
42147;DHT22;27815;43.410;11.852;2023-09-07T09:16:30;28.50;40.70
42147;DHT22;27815;43.410;11.852;2023-09-07T09:20:33;28.70;40.40
42147;DHT22;27815;43.410;11.852;2023-09-07T09:24:50;28.80;40.50
42147;DHT22;27815;43.410;11.852;2023-09-07T09:29:00;29.00;40.20
42147;DHT22;27815;43.410;11.852;2023-09-07T09:33:49;29.10;40.00
42147;DHT22;27815;43.410;11.852;2023-09-07T09:38:20;29.00;39.50
42147;DHT22;27815;43.410;11.852;2023-09-07T09:42:36;29.20;39.50
42147;DHT22;27815;43.410;11.852;2023-09-07T09:47:13;29.20;39.40
42147;DHT22;27815;43.410;11.852;2023-09-07T09:51:45;29.30;39.20
42147;DHT22;27815;43.410;11.852;2023-09-07T09:55:55;29.40;39.00
42147;DHT22;27815;43.410;11.852;2023-09-07T10:00:09;29.30;38.70
42147;DHT22;27815;43.410;11.852;2023-09-07T10:04:57;29.40;39.00
42147;DHT22;27815;43.410;11.852;2023-09-07T10:09:11;29.40;38.70
42147;DHT22;27815;43.410;11.852;2023-09-07T10:13:30;29.50;38.60
42147;DHT22;27815;43.410;11.852;2023-09-07T10:17:38;29.50;38.50
42147;DHT22;27815;43.410;11.852;2023-09-07T10:21:53;29.60;38.60
42147;DHT22;27815;43.410;11.852;2023-09-07T10:26:05;30.00;38.50
42147;DHT22;27815;43.410;11.852;2023-09-07T10:30:16;30.00;38.10
42147;DHT22;27815;43.410;11.852;2023-09-07T10:34:45;29.90;38.00
42147;DHT22;27815;43.410;11.852;2023-09-07T10:39:31;30.00;38.30
42147;DHT22;27815;43.410;11.852;2023-09-07T10:45:16;30.20;38.00
42147;DHT22;27815;43.410;11.852;2023-09-07T11:03:11;30.10;37.70
42147;DHT22;27815;43.410;11.852;2023-09-07T11:08:48;30.20;37.70
42147;DHT22;27815;43.410;11.852;2023-09-07T11:25:57;30.30;37.60
42147;DHT22;27815;43.410;11.852;2023-09-07T11:36:17;30.40;36.90
42147;DHT22;27815;43.410;11.852;2023-09-07T11:54:27;31.00;36.10
42147;DHT22;27815;43.410;11.852;2023-09-07T12:01:02;31.30;36.00
42147;DHT22;27815;43.410;11.852;2023-09-07T12:08:06;31.30;35.80
42147;DHT22;27815;43.410;11.852;2023-09-07T12:18:05;31.20;35.70
42147;DHT22;27815;43.410;11.852;2023-09-07T12:24:20;31.40;35.20
42147;DHT22;27815;43.410;11.852;2023-09-07T12:35:02;31.50;35.60
42147;DHT22;27815;43.410;11.852;2023-09-07T12:39:49;31.40;35.70
42147;DHT22;27815;43.410;11.852;2023-09-07T12:44:50;31.50;35.20
42147;DHT22;27815;43.410;11.852;2023-09-07T12:49:38;31.50;35.30
42147;DHT22;27815;43.410;11.852;2023-09-07T12:54:32;31.50;35.00
42147;DHT22;27815;43.410;11.852;2023-09-07T12:58:55;31.40;35.10
42147;DHT22;27815;43.410;11.852;2023-09-07T13:03:07;31.30;35.00
42147;DHT22;27815;43.410;11.852;2023-09-07T13:07:12;31.40;35.10
42147;DHT22;27815;43.410;11.852;2023-09-07T13:11:28;31.40;34.70
42147;DHT22;27815;43.410;11.852;2023-09-07T13:15:34;31.30;34.60
42147;DHT22;27815;43.410;11.852;2023-09-07T13:24:50;31.50;34.80
42147;DHT22;27815;43.410;11.852;2023-09-07T13:28:56;31.50;34.90
42147;DHT22;27815;43.410;11.852;2023-09-07T13:33:19;31.40;34.60
42147;DHT22;27815;43.410;11.852;2023-09-07T13:37:52;31.20;34.50
42147;DHT22;27815;43.410;11.852;2023-09-07T13:42:02;31.20;34.50
42147;DHT22;27815;43.410;11.852;2023-09-07T13:46:10;31.20;34.60
42147;DHT22;27815;43.410;11.852;2023-09-07T13:50:24;31.10;34.90
42147;DHT22;27815;43.410;11.852;2023-09-07T13:54:47;31.10;35.10
42147;DHT22;27815;43.410;11.852;2023-09-07T13:58:54;31.00;35.10
42147;DHT22;27815;43.410;11.852;2023-09-07T14:02:57;31.00;35.30
42147;DHT22;27815;43.410;11.852;2023-09-07T14:07:08;31.00;35.50
42147;DHT22;27815;43.410;11.852;2023-09-07T14:11:21;31.10;35.40
42147;DHT22;27815;43.410;11.852;2023-09-07T14:15:27;31.20;35.30
42147;DHT22;27815;43.410;11.852;2023-09-07T14:19:31;31.10;35.40
42147;DHT22;27815;43.410;11.852;2023-09-07T14:23:35;31.00;35.70
42147;DHT22;27815;43.410;11.852;2023-09-07T14:27:42;31.00;35.70
42147;DHT22;27815;43.410;11.852;2023-09-07T14:31:45;30.90;35.60
42147;DHT22;27815;43.410;11.852;2023-09-07T14:35:51;30.90;35.70
42147;DHT22;27815;43.410;11.852;2023-09-07T14:39:57;30.90;35.80
42147;DHT22;27815;43.410;11.852;2023-09-07T14:44:06;30.90;35.90
42147;DHT22;27815;43.410;11.852;2023-09-07T14:48:10;30.80;35.50
42147;DHT22;27815;43.410;11.852;2023-09-07T14:52:14;30.80;35.50
42147;DHT22;27815;43.410;11.852;2023-09-07T14:56:21;30.80;35.40
42147;DHT22;27815;43.410;11.852;2023-09-07T15:00:30;30.80;35.40
42147;DHT22;27815;43.410;11.852;2023-09-07T15:04:35;30.90;35.30
42147;DHT22;27815;43.410;11.852;2023-09-07T15:08:39;30.90;35.00
42147;DHT22;27815;43.410;11.852;2023-09-07T15:13:51;30.80;35.20
42147;DHT22;27815;43.410;11.852;2023-09-07T15:17:59;30.70;35.50
42147;DHT22;27815;43.410;11.852;2023-09-07T15:22:04;30.70;35.40
42147;DHT22;27815;43.410;11.852;2023-09-07T15:26:42;30.80;35.40
42147;DHT22;27815;43.410;11.852;2023-09-07T15:31:14;30.70;35.30
42147;DHT22;27815;43.410;11.852;2023-09-07T15:36:35;30.50;35.50
42147;DHT22;27815;43.410;11.852;2023-09-07T15:40:38;30.50;35.40
42147;DHT22;27815;43.410;11.852;2023-09-07T15:44:42;30.60;35.50
42147;DHT22;27815;43.410;11.852;2023-09-07T15:48:52;30.80;35.20
42147;DHT22;27815;43.410;11.852;2023-09-07T15:52:55;30.80;34.80
42147;DHT22;27815;43.410;11.852;2023-09-07T15:56:59;30.80;35.00
42147;DHT22;27815;43.410;11.852;2023-09-07T16:01:07;30.90;34.90
42147;DHT22;27815;43.410;11.852;2023-09-07T16:05:10;31.20;34.60
42147;DHT22;27815;43.410;11.852;2023-09-07T16:09:13;31.20;34.50
42147;DHT22;27815;43.410;11.852;2023-09-07T16:13:17;31.40;34.30
42147;DHT22;27815;43.410;11.852;2023-09-07T16:17:21;31.70;33.70
42147;DHT22;27815;43.410;11.852;2023-09-07T16:21:24;32.00;33.40
42147;DHT22;27815;43.410;11.852;2023-09-07T16:25:27;31.60;33.50
42147;DHT22;27815;43.410;11.852;2023-09-07T16:29:29;31.20;33.50
42147;DHT22;27815;43.410;11.852;2023-09-07T16:33:38;30.70;33.90
42147;DHT22;27815;43.410;11.852;2023-09-07T16:42:41;30.40;34.60
42147;DHT22;27815;43.410;11.852;2023-09-07T16:46:44;30.10;34.90
42147;DHT22;27815;43.410;11.852;2023-09-07T16:50:53;30.10;35.00
42147;DHT22;27815;43.410;11.852;2023-09-07T16:55:25;30.00;35.00
42147;DHT22;27815;43.410;11.852;2023-09-07T16:59:30;30.40;34.90
42147;DHT22;27815;43.410;11.852;2023-09-07T17:03:55;30.50;34.80
42147;DHT22;27815;43.410;11.852;2023-09-07T17:07:58;30.50;34.80
42147;DHT22;27815;43.410;11.852;2023-09-07T17:12:01;29.80;35.50
42147;DHT22;27815;43.410;11.852;2023-09-07T17:16:07;29.10;36.30
42147;DHT22;27815;43.410;11.852;2023-09-07T17:20:11;28.60;36.90
42147;DHT22;27815;43.410;11.852;2023-09-07T17:24:15;28.20;37.60
42147;DHT22;27815;43.410;11.852;2023-09-07T17:28:18;27.80;38.20
42147;DHT22;27815;43.410;11.852;2023-09-07T17:32:22;27.50;38.60
42147;DHT22;27815;43.410;11.852;2023-09-07T17:36:26;27.10;39.10
42147;DHT22;27815;43.410;11.852;2023-09-07T17:40:33;26.80;39.50
42147;DHT22;27815;43.410;11.852;2023-09-07T17:44:40;26.50;40.40
42147;DHT22;27815;43.410;11.852;2023-09-07T17:48:53;26.40;40.50
42147;DHT22;27815;43.410;11.852;2023-09-07T17:52:56;26.20;40.60
42147;DHT22;27815;43.410;11.852;2023-09-07T17:56:59;26.00;40.80
42147;DHT22;27815;43.410;11.852;2023-09-07T18:01:03;26.00;40.90
42147;DHT22;27815;43.410;11.852;2023-09-07T18:05:16;25.80;41.20
42147;DHT22;27815;43.410;11.852;2023-09-07T18:09:25;25.70;41.40
42147;DHT22;27815;43.410;11.852;2023-09-07T18:13:29;25.60;41.50
42147;DHT22;27815;43.410;11.852;2023-09-07T18:17:35;25.50;41.60
42147;DHT22;27815;43.410;11.852;2023-09-07T18:21:42;25.40;41.80
42147;DHT22;27815;43.410;11.852;2023-09-07T18:25:46;25.30;41.90
42147;DHT22;27815;43.410;11.852;2023-09-07T18:29:49;25.20;42.10
42147;DHT22;27815;43.410;11.852;2023-09-07T18:33:52;25.10;42.20
42147;DHT22;27815;43.410;11.852;2023-09-07T18:37:58;25.00;42.40
42147;DHT22;27815;43.410;11.852;2023-09-07T18:42:01;25.00;42.60
42147;DHT22;27815;43.410;11.852;2023-09-07T18:46:06;24.90;42.80
42147;DHT22;27815;43.410;11.852;2023-09-07T18:50:10;24.80;43.00
42147;DHT22;27815;43.410;11.852;2023-09-07T18:54:15;24.70;43.30
42147;DHT22;27815;43.410;11.852;2023-09-07T18:58:18;24.60;43.50
42147;DHT22;27815;43.410;11.852;2023-09-07T19:02:21;24.50;43.70
42147;DHT22;27815;43.410;11.852;2023-09-07T19:06:26;24.50;43.90
42147;DHT22;27815;43.410;11.852;2023-09-07T19:10:30;24.50;44.00
42147;DHT22;27815;43.410;11.852;2023-09-07T19:14:39;24.40;44.20
42147;DHT22;27815;43.410;11.852;2023-09-07T19:18:46;24.40;44.20
42147;DHT22;27815;43.410;11.852;2023-09-07T19:22:49;24.30;44.30
42147;DHT22;27815;43.410;11.852;2023-09-07T19:26:53;24.20;44.40
42147;DHT22;27815;43.410;11.852;2023-09-07T19:31:19;24.10;44.60
42147;DHT22;27815;43.410;11.852;2023-09-07T19:41:26;24.00;45.00
42147;DHT22;27815;43.410;11.852;2023-09-07T19:52:39;23.80;45.40
42147;DHT22;27815;43.410;11.852;2023-09-07T19:57:48;23.70;46.20
42147;DHT22;27815;43.410;11.852;2023-09-07T20:02:09;23.60;46.10
42147;DHT22;27815;43.410;11.852;2023-09-07T20:06:24;23.50;46.30
42147;DHT22;27815;43.410;11.852;2023-09-07T20:10:43;23.50;46.30
42147;DHT22;27815;43.410;11.852;2023-09-07T20:15:07;23.50;46.40
42147;DHT22;27815;43.410;11.852;2023-09-07T20:19:55;23.50;46.20
42147;DHT22;27815;43.410;11.852;2023-09-07T20:23:59;23.50;46.40
42147;DHT22;27815;43.410;11.852;2023-09-07T20:28:05;23.50;46.70
42147;DHT22;27815;43.410;11.852;2023-09-07T20:32:08;23.60;46.80
42147;DHT22;27815;43.410;11.852;2023-09-07T20:36:12;23.60;46.80
42147;DHT22;27815;43.410;11.852;2023-09-07T20:40:15;23.60;47.00
42147;DHT22;27815;43.410;11.852;2023-09-07T20:44:21;23.50;47.10
42147;DHT22;27815;43.410;11.852;2023-09-07T20:48:26;23.50;47.50
42147;DHT22;27815;43.410;11.852;2023-09-07T20:52:37;23.50;47.70
42147;DHT22;27815;43.410;11.852;2023-09-07T20:57:35;23.50;48.00
42147;DHT22;27815;43.410;11.852;2023-09-07T21:02:12;23.50;48.10
42147;DHT22;27815;43.410;11.852;2023-09-07T21:13:24;23.50;48.10
42147;DHT22;27815;43.410;11.852;2023-09-07T21:28:38;23.30;48.90
42147;DHT22;27815;43.410;11.852;2023-09-07T21:45:23;23.30;49.50
42147;DHT22;27815;43.410;11.852;2023-09-07T21:55:20;23.30;49.70
42147;DHT22;27815;43.410;11.852;2023-09-07T22:00:20;23.20;49.70
42147;DHT22;27815;43.410;11.852;2023-09-07T22:06:17;23.30;49.50
42147;DHT22;27815;43.410;11.852;2023-09-07T22:12:47;23.30;49.50
42147;DHT22;27815;43.410;11.852;2023-09-07T22:28:37;23.20;49.40
42147;DHT22;27815;43.410;11.852;2023-09-07T22:40:06;23.20;49.70
42147;DHT22;27815;43.410;11.852;2023-09-07T22:50:54;23.20;49.80
42147;DHT22;27815;43.410;11.852;2023-09-07T22:56:29;23.30;49.70
42147;DHT22;27815;43.410;11.852;2023-09-07T23:02:10;23.30;49.60
42147;DHT22;27815;43.410;11.852;2023-09-07T23:45:40;23.40;50.40
